sensor_id;sensor_type;location;lat;lon;timestamp;pressure;altitude;pressure_sealevel;temperature;humidity
18813;BME280;9534;51.140;6.296;2024-02-21T00:02:25;67747.06;;;9.36;100.00
18813;BME280;9534;51.140;6.296;2024-02-21T00:06:28;67756.88;;;9.38;100.00
18813;BME280;9534;51.140;6.296;2024-02-21T00:10:32;67759.31;;;9.42;100.00
18813;BME280;9534;51.140;6.296;2024-02-21T00:14:37;67757.03;;;9.40;100.00
18813;BME280;9534;51.140;6.296;2024-02-21T00:18:40;67754.19;;;9.38;100.00
18813;BME280;9534;51.140;6.296;2024-02-21T00:22:43;67751.63;;;9.40;100.00
18813;BME280;9534;51.140;6.296;2024-02-21T00:26:47;67750.47;;;9.39;100.00
18813;BME280;9534;51.140;6.296;2024-02-21T00:30:50;67757.03;;;9.40;100.00
18813;BME280;9534;51.140;6.296;2024-02-21T00:34:56;67751.63;;;9.40;100.00
18813;BME280;9534;51.140;6.296;2024-02-21T00:38:59;67751.03;;;9.40;100.00
18813;BME280;9534;51.140;6.296;2024-02-21T00:43:03;67749.34;;;9.38;100.00
18813;BME280;9534;51.140;6.296;2024-02-21T00:47:06;67755.59;;;9.34;100.00
18813;BME280;9534;51.140;6.296;2024-02-21T00:51:09;67751.34;;;9.35;100.00
18813;BME280;9534;51.140;6.296;2024-02-21T00:55:12;67751.75;;;9.33;100.00
18813;BME280;9534;51.140;6.296;2024-02-21T00:59:17;67741.38;;;9.31;100.00
18813;BME280;9534;51.140;6.296;2024-02-21T01:03:19;67743.34;;;9.28;100.00
18813;BME280;9534;51.140;6.296;2024-02-21T01:07:23;67738.38;;;9.26;100.00
18813;BME280;9534;51.140;6.296;2024-02-21T01:11:26;67737.66;;;9.23;100.00
18813;BME280;9534;51.140;6.296;2024-02-21T01:15:30;67735.38;;;9.21;100.00
18813;BME280;9534;51.140;6.296;2024-02-21T01:19:33;67733.66;;;9.20;100.00
18813;BME280;9534;51.140;6.296;2024-02-21T01:23:37;67731.53;;;9.20;100.00
18813;BME280;9534;51.140;6.296;2024-02-21T01:27:40;67728.53;;;9.15;100.00
18813;BME280;9534;51.140;6.296;2024-02-21T01:31:44;67725.81;;;9.15;100.00
18813;BME280;9534;51.140;6.296;2024-02-21T01:35:49;67732.38;;;9.16;100.00
18813;BME280;9534;51.140;6.296;2024-02-21T01:39:52;67721.97;;;9.14;100.00
18813;BME280;9534;51.140;6.296;2024-02-21T01:43:55;67730.09;;;9.14;100.00
18813;BME280;9534;51.140;6.296;2024-02-21T01:48:00;67727.38;;;9.14;100.00
18813;BME280;9534;51.140;6.296;2024-02-21T01:52:03;67720.13;;;9.10;100.00
18813;BME280;9534;51.140;6.296;2024-02-21T01:56:06;67720.53;;;9.08;100.00
18813;BME280;9534;51.140;6.296;2024-02-21T02:00:10;67714.44;;;9.05;100.00
18813;BME280;9534;51.140;6.296;2024-02-21T02:04:17;67714.84;;;9.03;100.00
18813;BME280;9534;51.140;6.296;2024-02-21T02:08:20;67715.28;;;9.01;100.00
18813;BME280;9534;51.140;6.296;2024-02-21T02:12:24;67705.16;;;8.95;100.00
18813;BME280;9534;51.140;6.296;2024-02-21T02:16:27;67696.91;;;8.92;100.00
18813;BME280;9534;51.140;6.296;2024-02-21T02:20:31;67702.31;;;8.92;100.00
18813;BME280;9534;51.140;6.296;2024-02-21T02:24:38;67698.88;;;8.89;100.00
18813;BME280;9534;51.140;6.296;2024-02-21T02:28:41;67696.59;;;8.87;100.00
18813;BME280;9534;51.140;6.296;2024-02-21T02:32:44;67699.31;;;8.87;100.00
18813;BME280;9534;51.140;6.296;2024-02-21T02:36:48;67692.34;;;8.88;100.00
18813;BME280;9534;51.140;6.296;2024-02-21T02:40:52;67693.78;;;8.85;100.00
18813;BME280;9534;51.140;6.296;2024-02-21T02:44:55;67694.91;;;8.86;100.00
18813;BME280;9534;51.140;6.296;2024-02-21T02:48:58;67694.31;;;8.85;100.00
18813;BME280;9534;51.140;6.296;2024-02-21T02:53:01;67697.03;;;8.85;100.00
18813;BME280;9534;51.140;6.296;2024-02-21T02:57:06;67692.63;;;8.84;100.00
18813;BME280;9534;51.140;6.296;2024-02-21T03:01:09;67693.34;;;8.87;100.00
18813;BME280;9534;51.140;6.296;2024-02-21T03:05:12;67697.19;;;8.88;100.00
18813;BME280;9534;51.140;6.296;2024-02-21T03:09:16;67693.34;;;8.87;100.00
18813;BME280;9534;51.140;6.296;2024-02-21T03:13:21;67689.78;;;8.81;100.00
18813;BME280;9534;51.140;6.296;2024-02-21T03:17:24;67692.63;;;8.84;100.00
18813;BME280;9534;51.140;6.296;2024-02-21T03:21:28;67692.22;;;8.86;100.00
18813;BME280;9534;51.140;6.296;2024-02-21T03:25:31;67694.31;;;8.85;100.00
18813;BME280;9534;51.140;6.296;2024-02-21T03:29:35;67690.50;;;8.84;100.00
18813;BME280;9534;51.140;6.296;2024-02-21T03:33:38;67690.50;;;8.84;100.00
18813;BME280;9534;51.140;6.296;2024-02-21T03:37:44;67685.50;;;8.82;100.00
18813;BME280;9534;51.140;6.296;2024-02-21T03:41:47;67688.91;;;8.85;100.00
18813;BME280;9534;51.140;6.296;2024-02-21T03:45:51;67697.75;;;8.88;100.00
18813;BME280;9534;51.140;6.296;2024-02-21T03:49:54;67691.06;;;8.85;100.00
18813;BME280;9534;51.140;6.296;2024-02-21T03:53:57;67692.03;;;8.83;100.00
18813;BME280;9534;51.140;6.296;2024-02-21T03:58:00;67692.03;;;8.83;100.00
18813;BME280;9534;51.140;6.296;2024-02-21T04:02:04;67687.06;;;8.81;100.00
18813;BME280;9534;51.140;6.296;2024-02-21T04:06:10;67687.06;;;8.81;100.00
18813;BME280;9534;51.140;6.296;2024-02-21T04:10:14;67685.78;;;8.78;100.00
18813;BME280;9534;51.140;6.296;2024-02-21T04:14:16;67687.50;;;8.79;100.00
18813;BME280;9534;51.140;6.296;2024-02-21T04:18:21;67683.66;;;8.78;100.00
18813;BME280;9534;51.140;6.296;2024-02-21T04:22:24;67684.66;;;8.77;100.00
18813;BME280;9534;51.140;6.296;2024-02-21T04:26:27;67682.94;;;8.75;100.00
18813;BME280;9534;51.140;6.296;2024-02-21T04:30:30;67682.94;;;8.75;100.00
18813;BME280;9534;51.140;6.296;2024-02-21T04:34:34;67676.81;;;8.72;100.00
18813;BME280;9534;51.140;6.296;2024-02-21T04:38:37;67680.66;;;8.73;100.00
18813;BME280;9534;51.140;6.296;2024-02-21T04:42:41;67681.78;;;8.74;100.00
18813;BME280;9534;51.140;6.296;2024-02-21T04:46:43;67684.91;;;8.72;100.00
18813;BME280;9534;51.140;6.296;2024-02-21T04:50:48;67682.78;;;8.73;100.00
18813;BME280;9534;51.140;6.296;2024-02-21T04:54:51;67680.66;;;8.73;100.00
18813;BME280;9534;51.140;6.296;2024-02-21T04:58:54;67674.53;;;8.70;100.00
18813;BME280;9534;51.140;6.296;2024-02-21T05:02:57;67672.41;;;8.71;100.00
18813;BME280;9534;51.140;6.296;2024-02-21T05:07:01;67678.38;;;8.71;100.00
18813;BME280;9534;51.140;6.296;2024-02-21T05:11:04;67673.81;;;8.67;100.00
18813;BME280;9534;51.140;6.296;2024-02-21T05:15:08;67681.06;;;8.71;100.00
18813;BME280;9534;51.140;6.296;2024-02-21T05:19:11;67675.53;;;8.69;100.00
18813;BME280;9534;51.140;6.296;2024-02-21T05:23:15;67678.78;;;8.69;100.00
18813;BME280;9534;51.140;6.296;2024-02-21T05:27:18;67678.94;;;8.72;100.00
18813;BME280;9534;51.140;6.296;2024-02-21T05:31:21;67680.66;;;8.73;100.00
18813;BME280;9534;51.140;6.296;2024-02-21T05:35:27;67683.34;;;8.73;100.00
18813;BME280;9534;51.140;6.296;2024-02-21T05:39:31;67678.53;;;8.74;100.00
18813;BME280;9534;51.140;6.296;2024-02-21T05:43:34;67680.22;;;8.75;100.00
18813;BME280;9534;51.140;6.296;2024-02-21T05:47:37;67685.63;;;8.75;100.00
18813;BME280;9534;51.140;6.296;2024-02-21T05:51:40;67683.50;;;8.76;100.00
18813;BME280;9534;51.140;6.296;2024-02-21T05:55:45;67684.78;;;8.79;100.00
18813;BME280;9534;51.140;6.296;2024-02-21T05:59:48;67678.25;;;8.78;100.00
18813;BME280;9534;51.140;6.296;2024-02-21T06:03:51;67686.34;;;8.78;100.00
18813;BME280;9534;51.140;6.296;2024-02-21T06:07:54;67678.09;;;8.76;100.00
18813;BME280;9534;51.140;6.296;2024-02-21T06:11:59;67692.91;;;8.79;100.00
18813;BME280;9534;51.140;6.296;2024-02-21T06:16:02;67682.50;;;8.77;100.00
18813;BME280;9534;51.140;6.296;2024-02-21T06:20:06;67687.34;;;8.77;100.00
18813;BME280;9534;51.140;6.296;2024-02-21T06:24:09;67691.34;;;8.80;100.00
18813;BME280;9534;51.140;6.296;2024-02-21T06:28:16;67694.75;;;8.83;100.00
18813;BME280;9534;51.140;6.296;2024-02-21T06:32:19;67688.63;;;8.80;100.00
18813;BME280;9534;51.140;6.296;2024-02-21T06:36:22;67688.06;;;8.80;100.00
18813;BME280;9534;51.140;6.296;2024-02-21T06:40:25;67691.34;;;8.80;100.00
18813;BME280;9534;51.140;6.296;2024-02-21T06:44:29;67689.63;;;8.79;100.00
18813;BME280;9534;51.140;6.296;2024-02-21T06:48:33;67686.34;;;8.78;100.00
18813;BME280;9534;51.140;6.296;2024-02-21T06:52:36;67692.47;;;8.81;100.00
18813;BME280;9534;51.140;6.296;2024-02-21T06:56:40;67687.50;;;8.79;100.00
18813;BME280;9534;51.140;6.296;2024-02-21T07:00:44;67684.06;;;8.76;100.00
18813;BME280;9534;51.140;6.296;2024-02-21T07:04:47;67678.25;;;8.78;100.00
18813;BME280;9534;51.140;6.296;2024-02-21T07:08:50;67685.94;;;8.80;100.00
18813;BME280;9534;51.140;6.296;2024-02-21T07:12:54;67681.38;;;8.76;100.00
18813;BME280;9534;51.140;6.296;2024-02-21T07:16:58;67683.50;;;8.76;100.00
18813;BME280;9534;51.140;6.296;2024-02-21T07:21:01;67676.97;;;8.75;100.00
18813;BME280;9534;51.140;6.296;2024-02-21T07:25:04;67664.13;;;8.59;100.00
18813;BME280;9534;51.140;6.296;2024-02-21T07:29:08;67665.56;;;8.56;100.00
18813;BME280;9534;51.140;6.296;2024-02-21T07:33:12;67660.72;;;8.56;100.00
18813;BME280;9534;51.140;6.296;2024-02-21T07:37:15;67665.84;;;8.60;100.00
18813;BME280;9534;51.140;6.296;2024-02-21T07:41:18;67668.84;;;8.65;100.00
18813;BME280;9534;51.140;6.296;2024-02-21T07:45:21;67669.25;;;8.63;100.00
18813;BME280;9534;51.140;6.296;2024-02-21T07:49:27;67667.28;;;8.66;100.00
18813;BME280;9534;51.140;6.296;2024-02-21T07:53:30;67673.81;;;8.67;100.00
18813;BME280;9534;51.140;6.296;2024-02-21T07:57:33;67675.53;;;8.69;100.00
18813;BME280;9534;51.140;6.296;2024-02-21T08:01:36;67668.56;;;8.70;100.00
18813;BME280;9534;51.140;6.296;2024-02-21T08:05:40;67674.09;;;8.72;100.00
18813;BME280;9534;51.140;6.296;2024-02-21T08:09:43;67683.34;;;8.73;100.00
18813;BME280;9534;51.140;6.296;2024-02-21T08:13:46;67684.50;;;8.74;100.00
18813;BME280;9534;51.140;6.296;2024-02-21T08:17:49;67677.81;;;8.71;100.00
18813;BME280;9534;51.140;6.296;2024-02-21T08:21:53;67680.09;;;8.73;100.00
18813;BME280;9534;51.140;6.296;2024-02-21T08:25:56;67680.66;;;8.73;100.00
18813;BME280;9534;51.140;6.296;2024-02-21T08:29:59;67686.78;;;8.76;100.00
18813;BME280;9534;51.140;6.296;2024-02-21T08:34:02;67682.50;;;8.77;100.00
18813;BME280;9534;51.140;6.296;2024-02-21T08:38:09;67680.66;;;8.73;100.00
18813;BME280;9534;51.140;6.296;2024-02-21T08:42:12;67689.22;;;8.81;100.00
18813;BME280;9534;51.140;6.296;2024-02-21T08:46:15;67694.31;;;8.85;100.00
18813;BME280;9534;51.140;6.296;2024-02-21T08:50:18;67692.75;;;8.86;100.00
18813;BME280;9534;51.140;6.296;2024-02-21T08:54:31;67698.88;;;8.89;100.00
18813;BME280;9534;51.140;6.296;2024-02-21T08:58:34;67695.47;;;8.86;100.00
18813;BME280;9534;51.140;6.296;2024-02-21T09:02:39;67704.16;;;8.96;100.00
18813;BME280;9534;51.140;6.296;2024-02-21T09:06:44;67712.84;;;9.06;100.00
18813;BME280;9534;51.140;6.296;2024-02-21T09:10:49;67702.59;;;8.97;100.00
18813;BME280;9534;51.140;6.296;2024-02-21T09:14:52;67710.28;;;8.99;100.00
18813;BME280;9534;51.140;6.296;2024-02-21T09:18:55;67717.84;;;9.08;100.00
18813;BME280;9534;51.140;6.296;2024-02-21T09:22:59;67714.25;;;9.03;100.00
18813;BME280;9534;51.140;6.296;2024-02-21T09:27:04;67730.81;;;9.17;100.00
18813;BME280;9534;51.140;6.296;2024-02-21T09:31:08;67731.94;;;9.18;100.00
18813;BME280;9534;51.140;6.296;2024-02-21T09:35:11;67742.63;;;9.25;100.00
18813;BME280;9534;51.140;6.296;2024-02-21T09:39:15;67742.34;;;9.30;100.00
18813;BME280;9534;51.140;6.296;2024-02-21T09:43:21;67754.75;;;9.38;100.00
18813;BME280;9534;51.140;6.296;2024-02-21T09:47:28;67758.03;;;9.39;100.00
18813;BME280;9534;51.140;6.296;2024-02-21T09:51:36;67761.59;;;9.44;100.00
18813;BME280;9534;51.140;6.296;2024-02-21T09:55:42;67774.69;;;9.56;100.00
18813;BME280;9534;51.140;6.296;2024-02-21T09:59:48;67784.97;;;9.65;100.00
18813;BME280;9534;51.140;6.296;2024-02-21T10:03:52;67802.94;;;9.85;100.00
18813;BME280;9534;51.140;6.296;2024-02-21T10:07:57;67811.78;;;9.88;100.00
18813;BME280;9534;51.140;6.296;2024-02-21T10:12:07;67837.59;;;10.13;100.00
18813;BME280;9534;51.140;6.296;2024-02-21T10:16:12;67844.88;;;10.17;100.00
18813;BME280;9534;51.140;6.296;2024-02-21T10:20:15;67828.47;;;10.05;100.00
18813;BME280;9534;51.140;6.296;2024-02-21T10:24:25;67810.75;;;9.89;100.00
18813;BME280;9534;51.140;6.296;2024-02-21T10:28:29;67824.75;;;9.97;100.00
18813;BME280;9534;51.140;6.296;2024-02-21T10:32:33;67834.19;;;10.10;100.00
18813;BME280;9534;51.140;6.296;2024-02-21T10:36:36;67836.28;;;10.09;100.00
18813;BME280;9534;51.140;6.296;2024-02-21T10:40:39;67834.00;;;10.07;100.00
18813;BME280;9534;51.140;6.296;2024-02-21T10:44:42;67846.03;;;10.18;100.00
18813;BME280;9534;51.140;6.296;2024-02-21T10:48:51;67838.88;;;10.16;100.00
18813;BME280;9534;51.140;6.296;2024-02-21T10:53:01;67866.56;;;10.36;100.00
18813;BME280;9534;51.140;6.296;2024-02-21T10:57:11;67864.97;;;10.37;100.00
18813;BME280;9534;51.140;6.296;2024-02-21T11:01:15;67860.84;;;10.31;100.00
18813;BME280;9534;51.140;6.296;2024-02-21T11:05:21;67888.25;;;10.55;100.00
18813;BME280;9534;51.140;6.296;2024-02-21T11:09:29;67893.22;;;10.57;100.00
18813;BME280;9534;51.140;6.296;2024-02-21T11:13:34;67881.38;;;10.49;100.00
18813;BME280;9534;51.140;6.296;2024-02-21T11:17:38;67881.69;;;10.54;100.00
18813;BME280;9534;51.140;6.296;2024-02-21T11:21:53;67883.66;;;10.51;100.00
18813;BME280;9534;51.140;6.296;2024-02-21T11:26:03;67896.22;;;10.62;100.00
18813;BME280;9534;51.140;6.296;2024-02-21T11:30:07;67896.09;;;10.59;100.00
18813;BME280;9534;51.140;6.296;2024-02-21T11:34:11;67895.38;;;10.66;100.00
18813;BME280;9534;51.140;6.296;2024-02-21T11:38:16;67924.50;;;10.91;100.00
18813;BME280;9534;51.140;6.296;2024-02-21T11:42:19;67933.91;;;10.95;100.00
18813;BME280;9534;51.140;6.296;2024-02-21T11:46:22;67924.78;;;10.87;100.00
18813;BME280;9534;51.140;6.296;2024-02-21T11:50:26;67932.06;;;10.91;100.00
18813;BME280;9534;51.140;6.296;2024-02-21T11:54:30;67930.47;;;11.01;100.00
18813;BME280;9534;51.140;6.296;2024-02-21T11:58:33;67925.34;;;10.87;100.00
18813;BME280;9534;51.140;6.296;2024-02-21T12:02:36;67947.91;;;11.11;100.00
18813;BME280;9534;51.140;6.296;2024-02-21T12:06:39;67965.59;;;11.27;100.00
18813;BME280;9534;51.140;6.296;2024-02-21T12:10:44;67971.88;;;11.32;100.00
18813;BME280;9534;51.140;6.296;2024-02-21T12:14:54;67998.16;;;11.55;100.00
18813;BME280;9534;51.140;6.296;2024-02-21T12:18:58;68011.91;;;11.67;100.00
18813;BME280;9534;51.140;6.296;2024-02-21T12:23:02;68071.47;;;12.12;100.00
18813;BME280;9534;51.140;6.296;2024-02-21T12:27:07;68034.47;;;11.82;100.00
18813;BME280;9534;51.140;6.296;2024-02-21T12:31:10;68076.75;;;12.19;100.00
18813;BME280;9534;51.140;6.296;2024-02-21T12:35:14;68082.47;;;12.24;100.00
18813;BME280;9534;51.140;6.296;2024-02-21T12:39:17;68052.78;;;11.98;100.00
18813;BME280;9534;51.140;6.296;2024-02-21T12:43:21;68082.47;;;12.24;100.00
18813;BME280;9534;51.140;6.296;2024-02-21T12:47:24;68090.75;;;12.36;100.00
18813;BME280;9534;51.140;6.296;2024-02-21T12:51:28;68139.66;;;12.74;100.00
18813;BME280;9534;51.140;6.296;2024-02-21T12:55:31;68088.19;;;12.29;100.00
18813;BME280;9534;51.140;6.296;2024-02-21T12:59:36;68163.41;;;12.90;100.00
18813;BME280;9534;51.140;6.296;2024-02-21T13:03:39;68116.34;;;12.56;100.00
18813;BME280;9534;51.140;6.296;2024-02-21T13:07:42;68149.09;;;12.87;100.00
18813;BME280;9534;51.140;6.296;2024-02-21T13:11:45;68139.66;;;12.74;100.00
18813;BME280;9534;51.140;6.296;2024-02-21T13:15:49;68103.06;;;12.42;100.00
18813;BME280;9534;51.140;6.296;2024-02-21T13:19:52;68065.03;;;12.14;100.00
18813;BME280;9534;51.140;6.296;2024-02-21T13:23:55;68069.91;;;12.13;100.00
18813;BME280;9534;51.140;6.296;2024-02-21T13:27:58;68087.63;;;12.29;100.00
18813;BME280;9534;51.140;6.296;2024-02-21T13:32:03;68078.34;;;12.18;100.00
18813;BME280;9534;51.140;6.296;2024-02-21T13:36:07;68059.59;;;12.04;100.00
18813;BME280;9534;51.140;6.296;2024-02-21T13:40:11;68053.91;;;11.99;100.00
18813;BME280;9534;51.140;6.296;2024-02-21T13:44:15;68050.47;;;11.96;100.00
18813;BME280;9534;51.140;6.296;2024-02-21T13:48:19;68041.63;;;11.93;100.00
18813;BME280;9534;51.140;6.296;2024-02-21T13:52:22;68046.47;;;11.93;100.00
18813;BME280;9534;51.140;6.296;2024-02-21T13:56:28;68047.06;;;11.93;100.00
18813;BME280;9534;51.140;6.296;2024-02-21T14:00:31;68039.19;;;11.89;100.00
18813;BME280;9534;51.140;6.296;2024-02-21T14:04:37;68058.03;;;12.05;100.00
18813;BME280;9534;51.140;6.296;2024-02-21T14:08:40;68060.47;;;12.10;100.00
18813;BME280;9534;51.140;6.296;2024-02-21T14:12:44;68042.91;;;11.87;100.00
18813;BME280;9534;51.140;6.296;2024-02-21T14:16:47;68044.91;;;11.94;100.00
18813;BME280;9534;51.140;6.296;2024-02-21T14:20:51;68044.06;;;11.88;100.00
18813;BME280;9534;51.140;6.296;2024-02-21T14:24:54;68042.75;;;11.85;100.00
18813;BME280;9534;51.140;6.296;2024-02-21T14:28:58;68034.03;;;11.84;100.00
18813;BME280;9534;51.140;6.296;2024-02-21T14:33:01;68036.75;;;11.84;100.00
18813;BME280;9534;51.140;6.296;2024-02-21T14:37:06;68031.31;;;11.84;100.00
18813;BME280;9534;51.140;6.296;2024-02-21T14:41:09;68021.59;;;11.76;100.00
18813;BME280;9534;51.140;6.296;2024-02-21T14:45:13;68016.19;;;11.66;100.00
18813;BME280;9534;51.140;6.296;2024-02-21T14:49:16;68010.44;;;11.61;100.00
18813;BME280;9534;51.140;6.296;2024-02-21T14:53:24;67999.88;;;11.57;100.00
18813;BME280;9534;51.140;6.296;2024-02-21T14:57:27;68002.03;;;11.56;100.00
18813;BME280;9534;51.140;6.296;2024-02-21T15:01:30;68004.72;;;11.56;100.00
18813;BME280;9534;51.140;6.296;2024-02-21T15:05:35;68001.31;;;11.53;100.00
18813;BME280;9534;51.140;6.296;2024-02-21T15:09:40;67997.03;;;11.54;100.00
18813;BME280;9534;51.140;6.296;2024-02-21T15:13:43;68001.72;;;11.51;100.00
18813;BME280;9534;51.140;6.296;2024-02-21T15:17:47;67993.31;;;11.46;100.00
18813;BME280;9534;51.140;6.296;2024-02-21T15:21:52;67991.03;;;11.44;100.00
18813;BME280;9534;51.140;6.296;2024-02-21T15:25:56;67987.88;;;11.46;100.00
18813;BME280;9534;51.140;6.296;2024-02-21T15:30:01;67995.59;;;11.48;100.00
18813;BME280;9534;51.140;6.296;2024-02-21T15:34:05;67992.59;;;11.43;100.00
18813;BME280;9534;51.140;6.296;2024-02-21T15:38:08;67969.91;;;11.26;100.00
18813;BME280;9534;51.140;6.296;2024-02-21T15:42:12;67969.91;;;11.26;100.00
18813;BME280;9534;51.140;6.296;2024-02-21T15:46:16;67962.75;;;11.24;100.00
18813;BME280;9534;51.140;6.296;2024-02-21T15:50:18;67955.88;;;11.18;100.00
18813;BME280;9534;51.140;6.296;2024-02-21T15:54:22;67946.47;;;11.06;100.00
18813;BME280;9534;51.140;6.296;2024-02-21T15:58:29;67925.91;;;10.88;100.00
18813;BME280;9534;51.140;6.296;2024-02-21T16:02:33;67914.06;;;10.80;100.00
18813;BME280;9534;51.140;6.296;2024-02-21T16:06:36;67900.81;;;10.66;100.00
18813;BME280;9534;51.140;6.296;2024-02-21T16:10:39;67867.97;;;10.42;100.00
18813;BME280;9534;51.140;6.296;2024-02-21T16:14:43;67849.88;;;10.19;100.00
18813;BME280;9534;51.140;6.296;2024-02-21T16:18:49;67824.88;;;9.99;100.00
18813;BME280;9534;51.140;6.296;2024-02-21T16:22:53;67805.22;;;9.87;100.00
18813;BME280;9534;51.140;6.296;2024-02-21T16:26:55;67797.66;;;9.78;100.00
18813;BME280;9534;51.140;6.296;2024-02-21T16:31:00;67790.94;;;9.65;100.00
18813;BME280;9534;51.140;6.296;2024-02-21T16:35:03;67783.53;;;9.68;100.00
18813;BME280;9534;51.140;6.296;2024-02-21T16:39:06;67791.81;;;9.71;100.00
18813;BME280;9534;51.140;6.296;2024-02-21T16:43:13;67783.97;;;9.66;100.00
18813;BME280;9534;51.140;6.296;2024-02-21T16:47:18;67780.41;;;9.61;100.00
18813;BME280;9534;51.140;6.296;2024-02-21T16:51:21;67779.81;;;9.60;100.00
18813;BME280;9534;51.140;6.296;2024-02-21T16:55:24;67793.94;;;9.70;100.00
18813;BME280;9534;51.140;6.296;2024-02-21T16:59:27;67775.25;;;9.56;100.00
18813;BME280;9534;51.140;6.296;2024-02-21T17:03:32;67772.56;;;9.56;100.00
18813;BME280;9534;51.140;6.296;2024-02-21T17:07:36;67787.53;;;9.62;100.00
18813;BME280;9534;51.140;6.296;2024-02-21T17:11:39;67771.84;;;9.53;100.00
18813;BME280;9534;51.140;6.296;2024-02-21T17:15:42;67768.84;;;9.48;100.00
18813;BME280;9534;51.140;6.296;2024-02-21T17:19:47;67789.81;;;9.64;100.00
18813;BME280;9534;51.140;6.296;2024-02-21T17:23:50;67759.59;;;9.47;100.00
18813;BME280;9534;51.140;6.296;2024-02-21T17:27:53;67766.13;;;9.48;100.00
18813;BME280;9534;51.140;6.296;2024-02-21T17:31:57;67737.22;;;9.25;100.00
18813;BME280;9534;51.140;6.296;2024-02-21T17:36:01;67730.81;;;9.17;100.00
18813;BME280;9534;51.140;6.296;2024-02-21T17:40:06;67718.41;;;9.09;100.00
18813;BME280;9534;51.140;6.296;2024-02-21T17:44:09;67716.53;;;9.05;100.00
18813;BME280;9534;51.140;6.296;2024-02-21T17:48:12;67711.00;;;9.02;100.00
18813;BME280;9534;51.140;6.296;2024-02-21T17:52:17;67718.41;;;9.09;100.00
18813;BME280;9534;51.140;6.296;2024-02-21T17:56:20;67723.09;;;9.06;100.00
18813;BME280;9534;51.140;6.296;2024-02-21T18:00:23;67705.72;;;8.95;100.00
18813;BME280;9534;51.140;6.296;2024-02-21T18:04:26;67697.31;;;8.90;100.00
18813;BME280;9534;51.140;6.296;2024-02-21T18:08:31;67692.75;;;8.86;100.00
18813;BME280;9534;51.140;6.296;2024-02-21T18:12:34;67686.94;;;8.79;100.00
18813;BME280;9534;51.140;6.296;2024-02-21T18:16:37;67689.47;;;8.76;100.00
18813;BME280;9534;51.140;6.296;2024-02-21T18:20:40;67691.34;;;8.80;100.00
18813;BME280;9534;51.140;6.296;2024-02-21T18:24:45;67686.34;;;8.78;100.00
18813;BME280;9534;51.140;6.296;2024-02-21T18:28:48;67682.38;;;8.75;100.00
18813;BME280;9534;51.140;6.296;2024-02-21T18:32:52;67688.34;;;8.75;100.00
18813;BME280;9534;51.140;6.296;2024-02-21T18:36:56;67679.50;;;8.72;100.00
18813;BME280;9534;51.140;6.296;2024-02-21T18:41:00;67687.19;;;8.74;100.00
18813;BME280;9534;51.140;6.296;2024-02-21T18:45:03;67698.16;;;8.86;100.00
18813;BME280;9534;51.140;6.296;2024-02-21T18:49:07;67694.31;;;8.85;100.00
18813;BME280;9534;51.140;6.296;2024-02-21T18:53:10;67704.59;;;8.85;100.00
18813;BME280;9534;51.140;6.296;2024-02-21T18:57:16;67689.34;;;8.83;100.00
18813;BME280;9534;51.140;6.296;2024-02-21T19:01:19;67688.63;;;8.80;100.00
18813;BME280;9534;51.140;6.296;2024-02-21T19:05:23;67694.75;;;8.83;100.00
18813;BME280;9534;51.140;6.296;2024-02-21T19:09:26;67698.59;;;8.84;100.00
18813;BME280;9534;51.140;6.296;2024-02-21T19:13:30;67687.78;;;8.84;100.00
18813;BME280;9534;51.140;6.296;2024-02-21T19:17:33;67705.00;;;8.92;100.00
18813;BME280;9534;51.140;6.296;2024-02-21T19:21:37;67700.03;;;8.90;100.00
18813;BME280;9534;51.140;6.296;2024-02-21T19:25:40;67698.88;;;8.89;100.00
18813;BME280;9534;51.140;6.296;2024-02-21T19:29:45;67699.59;;;8.92;100.00
18813;BME280;9534;51.140;6.296;2024-02-21T19:33:48;67697.75;;;8.88;100.00
18813;BME280;9534;51.140;6.296;2024-02-21T19:37:51;67700.44;;;8.88;100.00
18813;BME280;9534;51.140;6.296;2024-02-21T19:41:55;67700.44;;;8.88;100.00
18813;BME280;9534;51.140;6.296;2024-02-21T19:45:59;67693.47;;;8.80;100.00
18813;BME280;9534;51.140;6.296;2024-02-21T19:50:04;67673.25;;;8.76;100.00
18813;BME280;9534;51.140;6.296;2024-02-21T19:54:08;67682.94;;;8.75;100.00
18813;BME280;9534;51.140;6.296;2024-02-21T19:58:25;67687.50;;;8.79;100.00
18813;BME280;9534;51.140;6.296;2024-02-21T20:02:30;67689.34;;;8.83;100.00
18813;BME280;9534;51.140;6.296;2024-02-21T20:06:33;67694.31;;;8.85;100.00
18813;BME280;9534;51.140;6.296;2024-02-21T20:10:36;67699.19;;;8.85;100.00
18813;BME280;9534;51.140;6.296;2024-02-21T20:14:39;67698.16;;;8.86;100.00
18813;BME280;9534;51.140;6.296;2024-02-21T20:18:45;67702.31;;;8.92;100.00
18813;BME280;9534;51.140;6.296;2024-02-21T20:22:48;67697.75;;;8.88;100.00
18813;BME280;9534;51.140;6.296;2024-02-21T20:26:51;67693.91;;;8.87;100.00
18813;BME280;9534;51.140;6.296;2024-02-21T20:30:54;67692.03;;;8.83;100.00
18813;BME280;9534;51.140;6.296;2024-02-21T20:34:58;67688.22;;;8.82;100.00
18813;BME280;9534;51.140;6.296;2024-02-21T20:39:01;67685.94;;;8.80;100.00
18813;BME280;9534;51.140;6.296;2024-02-21T20:43:05;67690.34;;;8.82;100.00
18813;BME280;9534;51.140;6.296;2024-02-21T20:47:09;67690.91;;;8.82;100.00
18813;BME280;9534;51.140;6.296;2024-02-21T20:51:13;67691.50;;;8.83;100.00
18813;BME280;9534;51.140;6.296;2024-02-21T20:55:16;67693.34;;;8.87;100.00
18813;BME280;9534;51.140;6.296;2024-02-21T20:59:29;67695.03;;;8.88;100.00
18813;BME280;9534;51.140;6.296;2024-02-21T21:03:32;67710.28;;;8.99;100.00
18813;BME280;9534;51.140;6.296;2024-02-21T21:07:37;67716.00;;;9.04;100.00
18813;BME280;9534;51.140;6.296;2024-02-21T21:11:40;67714.84;;;9.03;100.00
18813;BME280;9534;51.140;6.296;2024-02-21T21:15:47;67713.72;;;9.02;100.00
18813;BME280;9534;51.140;6.296;2024-02-21T21:19:50;67705.88;;;8.98;100.00
18813;BME280;9534;51.140;6.296;2024-02-21T21:23:56;67721.41;;;9.04;100.00
18813;BME280;9534;51.140;6.296;2024-02-21T21:27:58;67712.16;;;9.03;100.00
18813;BME280;9534;51.140;6.296;2024-02-21T21:32:02;67717.84;;;9.08;100.00
18813;BME280;9534;51.140;6.296;2024-02-21T21:36:06;67728.25;;;9.10;100.00
18813;BME280;9534;51.140;6.296;2024-02-21T21:40:11;67719.41;;;9.07;100.00
18813;BME280;9534;51.140;6.296;2024-02-21T21:44:15;67718.81;;;9.07;100.00